Time;durP1;ratioP1;P1;durP2;ratioP2;P2;SDS_P1;SDS_P2;PMS_P1;PMS_P2;Temp;Humidity;BMP_temperature;BMP_pressure;BME280_temperature;BME280_humidity;BME280_pressure;Samples;Min_cycle;Max_cycle;Signal;HPM_P1;HPM_P2
2022/05/06 00:01:01;;;;;;;93.47;37.43;;;;;;;-145.69;100.00;72130.75;5073388;28;20190;-76
2022/05/06 00:03:27;;;;;;;93.33;37.33;;;;;;;-145.69;100.00;72130.75;5073947;28;20256;-76
2022/05/06 00:05:54;;;;;;;93.63;36.67;;;;;;;-145.69;100.00;72122.78;5073522;28;20649;-75
2022/05/06 00:08:20;;;;;;;97.43;38.73;;;;;;;-145.69;100.00;72126.78;5073924;28;20191;-76
2022/05/06 00:10:47;;;;;;;82.53;36.43;;;;;;;-145.69;100.00;72128.75;5073177;28;20253;-76
2022/05/06 00:13:13;;;;;;;92.30;35.37;;;;;;;-145.69;100.00;72126.78;5068709;28;20192;-75
2022/05/06 00:15:41;;;;;;;90.57;38.70;;;;;;;-145.69;100.00;72128.75;5073441;28;20230;-76
2022/05/06 00:18:08;;;;;;;87.17;35.13;;;;;;;-145.69;100.00;72126.78;5073465;28;20195;-76
2022/05/06 00:20:34;;;;;;;75.13;35.20;;;;;;;-145.69;100.00;72126.78;5073510;28;20237;-76
2022/05/06 00:23:01;;;;;;;82.53;33.63;;;;;;;-145.69;100.00;72126.78;5073115;28;20248;-76
2022/05/06 00:25:27;;;;;;;70.17;31.87;;;;;;;-145.69;100.00;72128.75;5073282;28;20233;-76
2022/05/06 00:27:54;;;;;;;80.63;34.00;;;;;;;-145.69;100.00;72122.78;5073299;28;20668;-76
2022/05/06 00:30:21;;;;;;;78.93;34.43;;;;;;;-145.69;100.00;72128.75;5072958;28;20502;-75
2022/05/06 00:32:50;;;;;;;97.37;35.27;;;;;;;-145.69;100.00;72134.72;5073330;28;20207;-76
2022/05/06 00:35:16;;;;;;;86.33;36.60;;;;;;;-145.69;100.00;72138.72;5072863;28;20229;-76
2022/05/06 00:37:43;;;;;;;101.73;37.07;;;;;;;-145.69;100.00;72142.69;5073141;28;20201;-76
2022/05/06 00:40:13;;;;;;;86.50;35.57;;;;;;;-145.69;100.00;72144.69;5073198;28;20252;-76
2022/05/06 00:42:40;;;;;;;104.73;38.67;;;;;;;-145.69;100.00;72146.69;5073189;28;20287;-76
2022/05/06 00:45:07;;;;;;;111.83;39.67;;;;;;;-145.69;100.00;72146.69;5073196;28;20194;-76
2022/05/06 00:47:35;;;;;;;110.13;39.57;;;;;;;-145.69;100.00;72144.69;5073076;28;20557;-76
2022/05/06 00:50:04;;;;;;;100.00;38.53;;;;;;;-145.69;100.00;72136.72;5073023;28;20589;-76
2022/05/06 00:52:30;;;;;;;98.67;37.10;;;;;;;-145.69;100.00;72142.69;5072413;28;20198;-76
2022/05/06 00:54:57;;;;;;;89.10;35.93;;;;;;;-145.69;100.00;72138.72;5072396;28;20198;-75
2022/05/06 00:57:24;;;;;;;93.47;37.57;;;;;;;-145.69;100.00;72142.69;5072758;28;20199;-75
2022/05/06 01:02:34;;;;;;;112.27;38.97;;;;;;;-145.69;100.00;72154.63;5072694;28;20209;-76
2022/05/06 01:05:03;;;;;;;112.83;41.17;;;;;;;-145.69;100.00;72154.63;5072656;28;20557;-76
2022/05/06 01:07:30;;;;;;;99.00;39.83;;;;;;;-145.69;100.00;72158.63;5072106;28;20606;-76
2022/05/06 01:09:57;;;;;;;111.53;39.83;;;;;;;-145.69;100.00;72160.59;5071658;28;20253;-76
2022/05/06 01:12:23;;;;;;;116.20;41.07;;;;;;;-145.69;100.00;72166.56;5072393;28;20194;-76
2022/05/06 01:14:50;;;;;;;122.50;41.97;;;;;;;-145.69;100.00;72160.59;5073054;28;20194;-75
2022/05/06 01:17:17;;;;;;;128.83;42.80;;;;;;;-145.69;100.00;72160.59;5072505;28;20230;-76
2022/05/06 01:19:43;;;;;;;120.87;42.33;;;;;;;-145.69;100.00;72166.56;5072222;28;20286;-75
2022/05/06 01:22:11;;;;;;;110.33;41.00;;;;;;;-145.69;100.00;72170.56;5072374;28;20285;-76
2022/05/06 01:24:38;;;;;;;113.90;41.50;;;;;;;-145.69;100.00;72166.56;5072318;28;20469;-76
2022/05/06 01:27:07;;;;;;;117.63;41.47;;;;;;;-145.69;100.00;72172.53;5072491;28;20195;-76
2022/05/06 01:29:34;;;;;;;121.27;44.13;;;;;;;-145.69;100.00;72174.53;5072578;28;20722;-76
2022/05/06 01:32:02;;;;;;;119.87;41.97;;;;;;;-145.69;100.00;72178.53;5072385;28;20191;-76
2022/05/06 01:34:32;;;;;;;120.53;43.37;;;;;;;-145.69;100.00;72184.50;5072832;28;20289;-76
2022/05/06 01:37:02;;;;;;;111.40;42.23;;;;;;;-145.69;100.00;72182.50;5072388;28;20227;-76
2022/05/06 01:39:34;;;;;;;105.27;40.47;;;;;;;-145.69;100.00;72178.53;5072081;28;20202;-76
2022/05/06 01:42:05;;;;;;;93.60;37.57;;;;;;;-145.69;100.00;72174.53;5072238;28;20191;-76
2022/05/06 01:44:37;;;;;;;111.30;39.93;;;;;;;-145.69;100.00;72170.56;5072692;28;20657;-76
2022/05/06 01:47:09;;;;;;;100.23;36.43;;;;;;;-145.69;100.00;72174.53;5072653;28;20202;-76
2022/05/06 01:49:39;;;;;;;105.73;39.93;;;;;;;-145.69;100.00;72174.53;5072129;28;20234;-76
2022/05/06 01:52:07;;;;;;;104.10;36.27;;;;;;;-145.69;100.00;72168.56;5072654;28;20197;-76
2022/05/06 01:54:35;;;;;;;95.20;37.30;;;;;;;-145.69;100.00;72174.53;5072597;28;20331;-76
2022/05/06 01:57:02;;;;;;;102.10;37.30;;;;;;;-145.69;100.00;72162.59;5071803;28;20237;-76
2022/05/06 01:59:29;;;;;;;95.00;37.28;;;;;;;-145.69;100.00;72166.56;5071797;28;20435;-76
2022/05/06 02:01:56;;;;;;;96.83;36.97;;;;;;;-145.69;100.00;72158.63;5071838;28;20202;-76
2022/05/06 02:07:06;;;;;;;103.47;39.43;;;;;;;-145.69;100.00;72162.59;5071677;28;20201;-76
2022/05/06 02:09:34;;;;;;;112.60;41.40;;;;;;;-145.69;100.00;72166.56;5071986;28;20556;-76
2022/05/06 02:12:01;;;;;;;96.00;37.07;;;;;;;-145.69;100.00;72162.59;5069728;28;20195;-76
2022/05/06 02:14:28;;;;;;;92.57;36.33;;;;;;;-145.69;100.00;72154.63;5070649;28;20218;-76
2022/05/06 02:16:55;;;;;;;103.63;38.77;;;;;;;-145.69;100.00;72158.63;5071668;28;20314;-76
2022/05/06 02:19:21;;;;;;;100.40;37.87;;;;;;;-145.69;100.00;72162.59;5076199;28;20207;-77
2022/05/06 02:21:48;;;;;;;108.23;39.63;;;;;;;-145.69;100.00;72158.63;5075480;28;20203;-76
2022/05/06 02:24:14;;;;;;;112.93;41.17;;;;;;;-145.69;100.00;72154.63;5075638;28;20195;-77
2022/05/06 02:26:42;;;;;;;105.23;38.93;;;;;;;-145.69;100.00;72158.63;5075241;28;20198;-77
2022/05/06 02:29:08;;;;;;;113.30;42.60;;;;;;;-145.69;100.00;72150.66;5075228;28;20222;-77
2022/05/06 02:34:20;;;;;;;104.00;40.27;;;;;;;-145.69;100.00;72144.69;5075801;28;20699;-76
2022/05/06 02:36:47;;;;;;;95.27;37.60;;;;;;;-145.69;100.00;72150.66;5075442;28;20258;-77
2022/05/06 02:39:14;;;;;;;87.73;33.87;;;;;;;-145.69;100.00;72146.69;5075533;28;20233;-77
2022/05/06 02:41:42;;;;;;;97.27;35.33;;;;;;;-145.69;100.00;72144.69;5075805;28;20252;-76
2022/05/06 02:44:08;;;;;;;89.13;36.10;;;;;;;-145.69;100.00;72150.66;5075661;28;20203;-76
2022/05/06 02:46:35;;;;;;;110.00;39.20;;;;;;;-145.69;100.00;72150.66;5074943;28;20203;-76
2022/05/06 02:49:04;;;;;;;110.80;39.67;;;;;;;-145.69;100.00;72154.63;5075526;28;20226;-76
2022/05/06 02:51:31;;;;;;;113.07;40.47;;;;;;;-145.69;100.00;72154.63;5075401;28;20199;-76
2022/05/06 02:53:58;;;;;;;124.87;40.60;;;;;;;-145.69;100.00;72152.66;5075127;28;20206;-76
2022/05/06 02:56:24;;;;;;;121.10;42.90;;;;;;;-145.69;100.00;72150.66;5074328;28;20576;-75
2022/05/06 02:58:52;;;;;;;104.97;39.73;;;;;;;-145.69;100.00;72146.69;5075264;28;20207;-76
2022/05/06 03:01:19;;;;;;;100.13;38.50;;;;;;;-145.69;100.00;72142.69;5075199;28;20641;-76
2022/05/06 03:03:45;;;;;;;99.00;37.87;;;;;;;-145.69;100.00;72138.72;5074612;28;20203;-77
2022/05/06 03:06:12;;;;;;;94.90;37.30;;;;;;;-145.69;100.00;72144.69;5074194;28;20534;-76
2022/05/06 03:08:38;;;;;;;110.43;39.07;;;;;;;-145.69;100.00;72142.69;5075274;28;20199;-77
2022/05/06 03:11:05;;;;;;;106.37;38.37;;;;;;;-145.69;100.00;72146.69;5074676;28;20199;-77
2022/05/06 03:13:31;;;;;;;111.53;40.80;;;;;;;-145.69;100.00;72150.66;5075175;28;20198;-77
2022/05/06 03:15:59;;;;;;;114.23;41.80;;;;;;;-145.69;100.00;72154.63;5074391;28;20704;-77
2022/05/06 03:18:27;;;;;;;113.50;40.00;;;;;;;-145.69;100.00;72154.63;5074877;28;20272;-76
2022/05/06 03:20:54;;;;;;;119.83;43.17;;;;;;;-145.69;100.00;72154.63;5074799;28;20199;-76
2022/05/06 03:23:20;;;;;;;120.57;40.50;;;;;;;-145.69;100.00;72152.66;5075137;28;20191;-77
2022/05/06 03:25:47;;;;;;;118.67;42.53;;;;;;;-145.69;100.00;72160.59;5074626;28;20202;-76
2022/05/06 03:28:14;;;;;;;133.07;42.37;;;;;;;-145.69;100.00;72166.56;5074574;28;20198;-75
2022/05/06 03:30:44;;;;;;;126.60;41.47;;;;;;;-145.69;100.00;72170.56;5073680;28;20607;-76
2022/05/06 03:33:15;;;;;;;102.17;40.57;;;;;;;-145.69;100.00;72152.66;5074416;28;20223;-76
2022/05/06 03:35:41;;;;;;;106.13;39.73;;;;;;;-145.69;100.00;72148.66;5073944;28;20593;-77
2022/05/06 03:38:08;;;;;;;113.97;39.67;;;;;;;-145.69;100.00;72158.63;5074412;28;20585;-76
2022/05/06 03:40:34;;;;;;;111.10;40.00;;;;;;;-145.69;100.00;72158.63;5074317;28;20249;-75
2022/05/06 03:43:01;;;;;;;107.80;39.93;;;;;;;-145.69;100.00;72166.56;5073924;28;20241;-76
2022/05/06 03:45:28;;;;;;;114.57;40.60;;;;;;;-145.69;100.00;72162.59;5074110;28;20661;-76
2022/05/06 03:47:54;;;;;;;127.10;41.40;;;;;;;-145.69;100.00;72168.56;5074089;28;20202;-76
2022/05/06 03:53:07;;;;;;;112.77;40.53;;;;;;;-145.69;100.00;72168.56;5074077;28;20205;-76
2022/05/06 03:55:34;;;;;;;100.60;37.00;;;;;;;-145.69;100.00;72162.59;5073963;28;20226;-76
2022/05/06 03:58:00;;;;;;;101.00;38.87;;;;;;;-145.69;100.00;72166.56;5073814;28;20229;-76
2022/05/06 04:00:27;;;;;;;113.77;40.07;;;;;;;-145.69;100.00;72160.59;5072979;28;20206;-76
2022/05/06 04:02:53;;;;;;;112.90;41.07;;;;;;;-145.69;100.00;72158.63;5074353;28;20202;-76
2022/05/06 04:05:20;;;;;;;122.32;50.50;;;;;;;-145.69;100.00;72164.59;5072319;28;20628;-76
2022/05/06 04:07:48;;;;;;;106.40;40.33;;;;;;;-145.69;100.00;72154.63;5073586;28;20672;-76
2022/05/06 04:10:14;;;;;;;100.60;37.73;;;;;;;-145.69;100.00;72154.63;5073838;28;20244;-76
2022/05/06 04:12:40;;;;;;;96.50;37.97;;;;;;;-145.69;100.00;72148.66;5073496;28;20195;-76
2022/05/06 04:15:09;;;;;;;87.97;35.57;;;;;;;-145.69;100.00;72144.69;5073726;28;20570;-76
2022/05/06 04:17:36;;;;;;;98.17;37.03;;;;;;;-145.69;100.00;72148.66;5073375;28;20218;-76
2022/05/06 04:25:33;;;;;;;98.80;35.23;;;;;;;-145.69;100.00;72154.63;5072873;28;20202;-76
2022/05/06 04:27:59;;;;;;;99.33;38.73;;;;;;;-145.69;100.00;72162.59;5073601;28;20202;-76
2022/05/06 04:30:26;;;;;;;85.93;35.50;;;;;;;-145.69;100.00;72154.63;5073327;28;20205;-76
2022/05/06 04:32:52;;;;;;;78.70;35.80;;;;;;;-145.69;100.00;72154.63;5073566;28;20202;-76
2022/05/06 04:35:19;;;;;;;98.77;38.20;;;;;;;-145.69;100.00;72160.59;5073240;28;20198;-76
2022/05/06 04:37:46;;;;;;;93.53;37.30;;;;;;;-145.69;100.00;72166.56;5072853;28;20234;-76
2022/05/06 04:40:14;;;;;;;88.20;35.80;;;;;;;-145.69;100.00;72170.56;5072742;28;20718;-76
2022/05/06 04:42:40;;;;;;;90.20;35.70;;;;;;;-145.69;100.00;72174.53;5072916;28;20649;-77
2022/05/06 04:45:08;;;;;;;99.83;38.90;;;;;;;-145.69;100.00;72166.56;5073423;28;20199;-76
2022/05/06 04:47:36;;;;;;;94.00;37.73;;;;;;;-145.69;100.00;72170.56;5072826;28;20194;-77
2022/05/06 04:50:04;;;;;;;94.30;36.77;;;;;;;-145.69;100.00;72168.56;5072529;28;20230;-76
2022/05/06 04:52:31;;;;;;;82.30;35.57;;;;;;;-145.69;100.00;72164.59;5072901;28;20194;-76
2022/05/06 04:54:57;;;;;;;85.90;34.37;;;;;;;-145.69;100.00;72154.63;5073183;28;20588;-76
2022/05/06 04:57:25;;;;;;;85.83;36.30;;;;;;;-145.69;100.00;72154.63;5072529;28;20230;-76
2022/05/06 04:59:54;;;;;;;79.83;34.83;;;;;;;-145.69;100.00;72152.66;5072782;28;20202;-76
2022/05/06 05:02:21;;;;;;;78.83;35.13;;;;;;;-145.69;100.00;72154.63;5072458;28;20653;-76
2022/05/06 05:04:52;;;;;;;81.80;33.43;;;;;;;-145.69;100.00;72160.59;5072393;28;20442;-76
2022/05/06 05:07:18;;;;;;;78.43;35.10;;;;;;;-145.69;100.00;72150.66;5072741;28;20195;-76
2022/05/06 05:09:45;;;;;;;82.70;35.30;;;;;;;-145.69;100.00;72154.63;5073001;28;20695;-75
2022/05/06 05:12:12;;;;;;;76.03;32.93;;;;;;;-145.69;100.00;72152.66;5071971;28;20186;-75
2022/05/06 05:14:41;;;;;;;75.77;33.73;;;;;;;-145.69;100.00;72150.66;5072864;28;20199;-76
2022/05/06 05:17:08;;;;;;;84.80;40.77;;;;;;;-145.69;100.00;72158.63;5071309;28;20449;-76
2022/05/06 05:19:35;;;;;;;72.90;34.17;;;;;;;-145.69;100.00;72150.66;5072587;28;20959;-76
2022/05/06 05:22:01;;;;;;;75.50;31.73;;;;;;;-145.69;100.00;72148.66;5072619;28;20195;-76
2022/05/06 05:24:27;;;;;;;73.97;31.97;;;;;;;-145.69;100.00;72144.69;5073157;28;20550;-76
2022/05/06 05:26:55;;;;;;;72.50;31.70;;;;;;;-145.69;100.00;72146.69;5072397;28;20213;-76
2022/05/06 05:29:21;;;;;;;67.77;31.73;;;;;;;-145.69;100.00;72150.66;5072232;28;20195;-76
2022/05/06 05:31:49;;;;;;;71.07;32.03;;;;;;;-145.69;100.00;72158.63;5072227;28;20195;-76
2022/05/06 05:34:15;;;;;;;70.07;31.73;;;;;;;-145.69;100.00;72146.69;5072176;28;20198;-76
2022/05/06 05:36:42;;;;;;;76.03;32.77;;;;;;;-145.69;100.00;72142.69;5072480;28;20222;-76
2022/05/06 05:39:11;;;;;;;69.03;33.17;;;;;;;-145.69;100.00;72138.72;5072554;28;20195;-75
2022/05/06 05:41:38;;;;;;;89.17;39.03;;;;;;;-145.69;100.00;72138.72;5072247;28;20260;-75
2022/05/06 05:49:34;;;;;;;70.50;31.93;;;;;;;-145.69;100.00;72112.84;5053578;28;20246;-75
2022/05/06 05:52:00;;;;;;;431.60;127.87;;;;;;;-145.69;100.00;72114.81;5065183;28;20194;-75
2022/05/06 05:54:28;;;;;;;119.63;49.77;;;;;;;-145.69;100.00;72114.81;5075877;28;20434;-75
2022/05/06 05:56:55;;;;;;;63.57;29.37;;;;;;;-145.69;100.00;72114.81;5076049;28;20684;-75
2022/05/06 05:59:22;;;;;;;67.37;30.67;;;;;;;-145.69;100.00;72102.88;5076412;28;20214;-75
2022/05/06 06:01:50;;;;;;;62.70;28.50;;;;;;;-145.69;100.00;72098.91;5075886;28;20187;-75
2022/05/06 06:04:16;;;;;;;170.23;56.77;;;;;;;-145.69;100.00;72096.91;5075991;28;20248;-75
2022/05/06 06:06:43;;;;;;;70.93;30.30;;;;;;;-145.69;100.00;72094.94;5075923;28;20244;-75
2022/05/06 06:09:10;;;;;;;62.80;30.47;;;;;;;-145.69;100.00;72090.94;5075956;28;20199;-76
2022/05/06 06:11:36;;;;;;;58.17;28.57;;;;;;;-145.69;100.00;72106.88;5075470;28;20199;-76
2022/05/06 06:14:03;;;;;;;47.97;24.83;;;;;;;-145.69;100.00;72106.88;5076552;28;20202;-76
2022/05/06 06:16:30;;;;;;;50.90;26.43;;;;;;;-145.69;100.00;72106.88;5076086;28;20226;-76
2022/05/06 06:18:58;;;;;;;49.90;24.37;;;;;;;-145.69;100.00;72102.88;5065037;28;20246;-76
2022/05/06 06:21:27;;;;;;;50.63;24.60;;;;;;;-145.69;100.00;72104.88;5065154;28;20548;-76
2022/05/06 06:23:53;;;;;;;48.20;24.90;;;;;;;-145.69;100.00;72096.91;5075933;28;20195;-76
2022/05/06 06:26:20;;;;;;;48.83;24.53;;;;;;;-145.69;100.00;72100.91;5074641;28;20675;-76
2022/05/06 06:28:47;;;;;;;45.93;24.97;;;;;;;-145.69;100.00;72104.88;5076252;28;20236;-75
2022/05/06 06:31:13;;;;;;;55.57;25.43;;;;;;;-145.69;100.00;72098.91;5075617;28;20224;-75
2022/05/06 06:33:40;;;;;;;47.80;24.43;;;;;;;-145.69;100.00;72110.84;5075389;28;20203;-76
2022/05/06 06:36:09;;;;;;;46.23;25.07;;;;;;;-145.69;100.00;72102.88;5075579;28;20195;-75
2022/05/06 06:38:35;;;;;;;45.57;23.50;;;;;;;-145.69;100.00;72090.94;5074858;28;20621;-76
2022/05/06 06:41:02;;;;;;;42.43;22.57;;;;;;;-145.69;100.00;72086.97;5075304;28;20191;-76
2022/05/06 06:43:28;;;;;;;44.63;21.97;;;;;;;-145.69;100.00;72082.97;5075126;28;20210;-75
2022/05/06 06:45:56;;;;;;;47.40;23.97;;;;;;;-145.69;100.00;72088.97;5075811;28;20553;-75
2022/05/06 06:48:23;;;;;;;47.03;24.40;;;;;;;-145.69;100.00;72082.97;5075449;28;20645;-75
2022/05/06 06:50:49;;;;;;;40.83;22.70;;;;;;;-145.69;100.00;72075.03;5075239;28;20252;-75
2022/05/06 06:53:17;;;;;;;41.67;22.63;;;;;;;-145.69;100.00;72071.03;5075044;28;20195;-75
2022/05/06 06:55:44;;;;;;;45.30;22.50;;;;;;;-145.69;100.00;72067.06;5075505;28;20199;-75
2022/05/06 06:58:10;;;;;;;35.83;20.53;;;;;;;-145.69;100.00;72037.22;5074868;28;20697;-75
2022/05/06 07:00:37;;;;;;;37.10;20.80;;;;;;;-145.69;100.00;72071.03;5075039;28;20209;-76
2022/05/06 07:03:04;;;;;;;37.40;20.47;;;;;;;-145.69;100.00;72063.09;5074887;28;20191;-75
2022/05/06 07:05:30;;;;;;;31.97;19.83;;;;;;;-145.69;100.00;72053.13;5073619;28;20256;-75
2022/05/06 07:13:28;;;;;;;36.73;19.47;;;;;;;-145.69;100.00;72013.31;5054986;28;20248;-75
2022/05/06 07:15:54;;;;;;;116.57;39.63;;;;;;;-145.69;100.00;72031.25;5060354;28;20237;-76
2022/05/06 07:18:21;;;;;;;35.47;18.97;;;;;;;-145.69;100.00;72045.16;5074958;28;20233;-77
2022/05/06 07:20:48;;;;;;;36.53;18.93;;;;;;;-145.69;100.00;72031.25;5074834;28;20207;-78
2022/05/06 07:23:19;;;;;;;31.97;18.57;;;;;;;-145.69;100.00;72015.31;5054753;28;20278;-76
2022/05/06 07:25:47;;;;;;;28.67;17.73;;;;;;;-145.69;100.00;72011.34;5059083;28;20252;-78
2022/05/06 07:28:13;;;;;;;28.03;17.33;;;;;;;-145.69;100.00;72005.38;5074844;28;20199;-77
2022/05/06 07:30:40;;;;;;;28.90;17.50;;;;;;;-145.69;100.00;71999.41;5074599;28;20270;-76
2022/05/06 07:33:07;;;;;;;30.13;17.77;;;;;;;-145.69;100.00;72017.31;5073798;28;20592;-78
2022/05/06 07:35:33;;;;;;;35.30;16.87;;;;;;;-145.69;100.00;72033.22;5074586;28;20203;-76
2022/05/06 07:37:59;;;;;;;32.60;16.83;;;;;;;-145.69;100.00;72039.19;5074107;28;20249;-76
2022/05/06 07:40:26;;;;;;;32.57;17.00;;;;;;;-145.69;100.00;72055.13;5074245;28;20202;-76
2022/05/06 07:42:55;;;;;;;28.40;16.43;;;;;;;-145.69;100.00;72033.22;5074066;28;20252;-76
2022/05/06 07:45:21;;;;;;;31.37;16.40;;;;;;;-145.69;100.00;72059.09;5074307;28;20195;-77
2022/05/06 07:47:48;;;;;;;28.20;16.50;;;;;;;-145.69;100.00;72049.16;5074120;28;20199;-77
2022/05/06 07:50:16;;;;;;;32.73;16.57;;;;;;;-145.69;100.00;72037.22;5074329;28;20228;-76
2022/05/06 07:52:42;;;;;;;29.10;17.20;;;;;;;-145.69;100.00;72049.16;5070641;28;20195;-77
2022/05/06 07:55:10;;;;;;;26.20;17.23;;;;;;;-145.69;100.00;72047.16;5075235;28;20286;-77
2022/05/06 07:57:36;;;;;;;30.10;16.57;;;;;;;-145.69;100.00;72035.22;5073995;28;20222;-76
2022/05/06 08:00:05;;;;;;;33.13;17.43;;;;;;;-145.69;100.00;72047.16;5074130;28;20203;-78
2022/05/06 08:05:16;;;;;;;32.83;19.55;;;;;;;-145.69;100.00;72043.19;5072456;28;20789;-78
2022/05/06 08:07:43;;;;;;;27.30;17.27;;;;;;;-145.69;100.00;72043.19;5073727;28;20221;-77
2022/05/06 08:10:10;;;;;;;27.07;17.07;;;;;;;-145.69;100.00;72041.19;5073693;28;20190;-77
2022/05/06 08:12:37;;;;;;;31.50;16.57;;;;;;;-145.69;100.00;72025.28;5073694;28;20194;-77
2022/05/06 08:15:06;;;;;;;25.60;15.97;;;;;;;-145.69;100.00;72003.38;5073569;28;20203;-79
2022/05/06 08:17:32;;;;;;;30.20;15.93;;;;;;;-145.69;100.00;71989.44;5071664;28;20283;-77
2022/05/06 08:19:59;;;;;;;27.07;15.20;;;;;;;-145.69;100.00;71975.50;5074203;28;20199;-76
2022/05/06 08:22:28;;;;;;;28.90;14.53;;;;;;;-145.69;100.00;71949.66;5073558;28;20211;-76
2022/05/06 08:24:54;;;;;;;29.17;15.00;;;;;;;-145.69;100.00;71953.63;5073874;28;20358;-78
2022/05/06 08:27:21;;;;;;;23.80;14.83;;;;;;;-145.69;100.00;71967.56;5072784;28;20203;-75
2022/05/06 08:29:47;;;;;;;26.17;15.73;;;;;;;-145.69;100.00;72009.34;5073290;28;20221;-79
2022/05/06 08:32:15;;;;;;;32.70;17.43;;;;;;;-145.69;100.00;72027.25;5073190;28;20191;-76
2022/05/06 08:34:41;;;;;;;31.40;16.60;;;;;;;-145.69;100.00;71997.41;5073569;28;20202;-76
2022/05/06 08:37:08;;;;;;;38.27;18.47;;;;;;;-145.69;100.00;71947.66;5073216;28;20218;-76
2022/05/06 08:39:34;;;;;;;226.60;37.43;;;;;;;-145.69;100.00;71937.69;5073146;28;20222;-76
2022/05/06 08:42:02;;;;;;;82.10;38.03;;;;;;;-145.69;100.00;71897.91;5072653;28;20187;-76
2022/05/06 08:52:45;;;;;;;24.57;13.37;;;;;;;-145.69;100.00;71864.06;5072111;28;20680;-77
2022/05/06 08:55:12;;;;;;;22.35;12.40;;;;;;;-145.69;100.00;71862.06;5072999;28;20289;-76
2022/05/06 08:57:42;;;;;;;25.17;12.35;;;;;;;-145.69;100.00;71814.31;5072963;28;20542;-76
2022/05/06 09:00:10;;;;;;;23.50;13.02;;;;;;;-145.69;100.00;71816.31;5073092;28;20195;-77
2022/05/06 09:02:39;;;;;;;20.65;12.50;;;;;;;-145.69;100.00;71794.41;5072310;28;20186;-77
2022/05/06 09:05:16;;;;;;;19.60;12.35;;;;;;;-145.69;100.00;71796.41;5073123;28;20550;-77
2022/05/06 09:07:54;;;;;;;19.60;11.73;;;;;;;-145.69;100.00;71724.75;5072775;28;20316;-78
2022/05/06 09:10:20;;;;;;;21.33;11.02;;;;;;;-145.69;100.00;71712.81;5072480;28;20202;-78
2022/05/06 09:12:47;;;;;;;18.30;11.70;;;;;;;-145.69;100.00;71734.72;5072980;28;20675;-76
2022/05/06 09:18:00;;;;;;;17.70;11.82;;;;;;;-145.69;100.00;71706.84;5072582;28;20835;-79
2022/05/06 09:20:29;;;;;;;21.58;10.82;;;;;;;-145.69;100.00;71712.81;5072564;28;20645;-78
2022/05/06 09:22:56;;;;;;;20.00;9.63;;;;;;;-145.69;96.84;71651.13;5072399;28;20195;-79
2022/05/06 09:25:36;;;;;;;16.00;9.73;;;;;;;-145.69;97.02;71645.16;5072919;28;20217;-79
2022/05/06 09:28:03;;;;;;;17.58;10.18;;;;;;;-145.69;98.24;71716.81;5072056;28;20206;-78
2022/05/06 09:30:29;;;;;;;17.33;9.32;;;;;;;-145.69;97.68;71688.94;5072267;28;20218;-78
2022/05/06 09:32:56;;;;;;;16.33;9.63;;;;;;;-145.69;95.50;71661.09;5072561;28;20241;-79
2022/05/06 09:35:28;;;;;;;16.92;10.07;;;;;;;-145.69;100.00;71688.94;5072474;28;20195;-78
2022/05/06 09:37:55;;;;;;;19.92;10.13;;;;;;;-145.69;97.20;71629.25;5072117;28;20218;-78
2022/05/06 09:40:23;;;;;;;16.50;9.93;;;;;;;-145.69;95.15;71599.41;5072531;28;20206;-79
2022/05/06 09:42:58;;;;;;;17.85;9.70;;;;;;;-145.69;97.02;71655.13;5068666;28;20203;-76
2022/05/06 09:45:30;;;;;;;24.42;12.40;;;;;;;-145.69;98.62;71680.97;5060625;28;20660;-75
2022/05/06 09:47:58;;;;;;;32.30;15.77;;;;;;;-145.69;98.08;71698.91;5067354;28;20214;-77
2022/05/06 09:50:33;;;;;;;19.55;10.68;;;;;;;-145.69;100.00;71744.66;5072280;28;20222;-77
2022/05/06 09:53:01;;;;;;;17.27;9.45;;;;;;;-145.69;98.44;71671.03;5068584;28;20288;-77
2022/05/06 09:55:29;;;;;;;18.05;9.68;;;;;;;-145.69;95.43;71657.09;5062233;28;20238;-78
2022/05/06 09:57:56;;;;;;;21.08;10.63;;;;;;;-145.69;98.84;71688.94;5064189;28;20199;-77
2022/05/06 10:00:23;;;;;;;18.40;10.18;;;;;;;-145.69;99.26;71716.81;5066304;28;20210;-76
2022/05/06 10:02:50;;;;;;;19.30;10.40;;;;;;;-145.69;98.74;71692.94;5072490;28;20268;-77
2022/05/06 10:05:16;;;;;;;17.10;9.52;;;;;;;-145.69;94.52;71651.13;5071411;28;20301;-78
2022/05/06 10:07:45;;;;;;;15.48;9.23;;;;;;;-145.69;93.19;71613.31;5072324;28;20210;-77
2022/05/06 10:10:19;;;;;;;14.73;9.32;;;;;;;-145.69;92.44;71597.41;5072243;28;20678;-76
2022/05/06 10:12:56;;;;;;;15.05;8.77;;;;;;;-145.69;90.54;71565.56;5071492;28;20269;-77
2022/05/06 10:15:25;;;;;;;16.73;9.38;;;;;;;-145.69;88.86;71615.31;5071975;28;20191;-77
2022/05/06 10:17:54;;;;;;;16.63;9.82;;;;;;;-145.69;87.38;71561.59;5068691;28;20192;-80
2022/05/06 10:21:00;;;;;;;36.15;15.27;;;;;;;-145.69;86.29;71567.56;5072566;28;20256;-80
2022/05/06 10:23:48;;;;;;;25.45;14.80;;;;;;;-145.69;87.37;71573.53;5072266;28;20292;-78
2022/05/06 10:26:41;;;;;;;21.80;13.10;;;;;;;-145.69;89.06;71571.53;5072453;28;20203;-77
2022/05/06 10:35:09;;;;;;;12.70;8.02;;;;;;;-145.69;85.70;71470.06;5072009;28;20600;-78
2022/05/06 10:37:37;;;;;;;15.90;8.15;;;;;;;-145.69;83.06;71513.81;5072278;28;20634;-79
2022/05/06 10:40:30;;;;;;;17.55;9.13;;;;;;;-145.69;88.77;71641.19;5075285;28;20230;-77
2022/05/06 10:42:57;;;;;;;15.55;9.30;;;;;;;-145.69;92.29;71587.47;5076031;28;20328;-78
2022/05/06 10:45:24;;;;;;;15.77;9.48;;;;;;;-145.69;95.32;71607.34;5075618;28;20194;-77
2022/05/06 10:47:51;;;;;;;14.07;9.43;;;;;;;-145.69;87.34;71589.44;5075736;28;20287;-77
2022/05/06 10:50:21;;;;;;;16.52;9.93;;;;;;;-145.69;91.45;71541.69;5075636;28;20284;-76
2022/05/06 10:52:48;;;;;;;15.60;9.10;;;;;;;-145.69;86.00;71525.78;5075615;28;20710;-76
2022/05/06 10:55:23;;;;;;;12.32;8.40;;;;;;;-145.69;87.03;71499.91;5075189;28;20203;-77
2022/05/06 10:58:07;;;;;;;14.13;8.80;;;;;;;-145.69;85.10;71442.19;5075533;28;20205;-77
2022/05/06 11:00:37;;;;;;;14.63;8.82;;;;;;;-145.69;83.11;71434.22;5075296;28;20199;-76
2022/05/06 11:03:05;;;;;;;36.80;9.82;;;;;;;-145.69;80.87;71485.97;5075463;28;20665;-77
2022/05/06 11:05:32;;;;;;;33.75;20.10;;;;;;;-145.69;83.85;71541.69;5074751;28;20224;-77
2022/05/06 11:08:01;;;;;;;19.15;9.00;;;;;;;-145.69;86.70;71587.47;5075574;28;20206;-77
2022/05/06 11:10:30;;;;;;;37.10;21.52;;;;;;;-145.69;90.55;71547.66;5075363;28;20205;-78
2022/05/06 11:12:59;;;;;;;19.13;9.55;;;;;;;-145.69;85.11;71529.75;5075404;28;20203;-78
2022/05/06 11:15:30;;;;;;;17.33;10.52;;;;;;;-145.69;86.06;71553.63;5074745;28;20752;-76
2022/05/06 11:17:58;;;;;;;21.25;8.73;;;;;;;-145.69;85.40;71517.81;5075126;28;20199;-76
2022/05/06 11:20:27;;;;;;;16.02;10.23;;;;;;;-145.69;85.75;71505.88;5074873;28;20745;-76
2022/05/06 11:22:55;;;;;;;14.75;9.07;;;;;;;-145.69;80.10;71466.06;5074839;28;20289;-76
2022/05/06 11:25:22;;;;;;;17.70;9.27;;;;;;;-145.69;80.55;71483.97;5074661;28;20202;-76
2022/05/06 11:27:50;;;;;;;14.82;9.05;;;;;;;-145.69;83.43;71509.84;5075000;28;20227;-77
2022/05/06 11:30:19;;;;;;;26.60;12.82;;;;;;;-145.69;85.18;71483.97;5074809;28;20294;-77
2022/05/06 11:32:51;;;;;;;15.50;8.95;;;;;;;-145.69;79.28;71450.16;5074531;28;20210;-77
2022/05/06 11:35:21;;;;;;;19.17;9.82;;;;;;;-145.69;81.03;71456.13;5074363;28;20662;-77
2022/05/06 11:37:48;;;;;;;15.00;9.48;;;;;;;-145.69;82.60;71515.81;5074769;28;20203;-77
2022/05/06 11:40:36;;;;;;;16.50;9.63;;;;;;;-145.69;82.71;71525.78;5074390;28;20231;-78
2022/05/06 11:43:08;;;;;;;23.75;11.77;;;;;;;-145.69;84.86;71547.66;5074733;28;20229;-77
2022/05/06 11:48:32;;;;;;;28.35;12.55;;;;;;;-145.69;87.04;71565.56;5032234;28;20199;-77